createdAt,value
2019-01-05T00:00:49.825Z,101113.12
2019-01-05T00:03:32.261Z,101105.78
2019-01-05T00:06:05.754Z,101117.00
2019-01-05T00:08:41.429Z,101111.83
2019-01-05T00:11:11.760Z,101098.44
2019-01-05T00:13:56.823Z,101101.47
2019-01-05T00:16:29.447Z,101097.16
2019-01-05T00:19:16.047Z,101085.92
2019-01-05T00:21:54.682Z,101088.51
2019-01-05T00:24:28.105Z,101081.17
2019-01-05T00:27:17.165Z,101079.02
2019-01-05T00:29:47.574Z,101086.34
2019-01-05T00:32:40.789Z,101094.56
2019-01-05T00:35:33.161Z,101092.85
2019-01-05T00:38:18.038Z,101090.66
2019-01-05T00:40:54.923Z,101089.36
2019-01-05T00:43:25.018Z,101089.37
2019-01-05T00:46:12.008Z,101085.48
2019-01-05T00:48:58.982Z,101089.81
2019-01-05T00:51:44.751Z,101085.92
2019-01-05T00:54:32.698Z,101091.11
2019-01-05T00:57:13.041Z,101088.52
2019-01-05T00:59:55.303Z,101102.34
2019-01-05T01:02:41.912Z,101097.59
2019-01-05T01:05:14.900Z,101102.34
2019-01-05T01:07:53.710Z,101101.04
2019-01-05T01:10:26.216Z,101098.89
2019-01-05T01:12:58.744Z,101106.23
2019-01-05T01:15:32.113Z,101094.15
2019-01-05T01:18:04.904Z,101094.98
2019-01-05T01:20:35.004Z,101097.59
2019-01-05T01:23:05.915Z,101094.56
2019-01-05T01:25:52.361Z,101088.09
2019-01-05T01:28:39.354Z,101090.27
2019-01-05T01:31:25.459Z,101091.12
2019-01-05T01:33:55.514Z,101094.56
2019-01-05T01:36:40.945Z,101092.83
2019-01-05T01:39:19.970Z,101100.19
2019-01-05T01:41:50.182Z,101099.32
2019-01-05T01:44:37.126Z,101104.51
2019-01-05T01:47:13.053Z,101109.23
2019-01-05T01:49:47.175Z,101109.24
2019-01-05T01:52:17.296Z,101113.14
2019-01-05T01:54:49.846Z,101107.09
2019-01-05T01:57:26.023Z,101114.44
2019-01-05T02:00:10.529Z,101104.08
2019-01-05T02:02:55.919Z,101104.91
2019-01-05T02:05:26.096Z,101098.88
2019-01-05T02:07:56.902Z,101096.30
2019-01-05T02:10:34.661Z,101091.55
2019-01-05T02:13:06.404Z,101093.27
2019-01-05T02:15:53.363Z,101093.26
2019-01-05T02:18:35.413Z,101087.23
2019-01-05T02:21:44.451Z,101081.61
2019-01-05T02:24:32.679Z,101078.13
2019-01-05T02:27:24.759Z,101079.86
2019-01-05T02:30:21.584Z,101081.19
2019-01-05T02:33:18.337Z,101080.73
2019-01-05T02:36:09.596Z,101071.25
2019-01-05T02:38:57.257Z,101072.08
2019-01-05T02:41:44.692Z,101072.96
2019-01-05T02:44:29.681Z,101074.69
2019-01-05T02:47:48.478Z,101075.12
2019-01-05T02:50:21.670Z,101067.78
2019-01-05T02:53:09.591Z,101075.09
2019-01-05T02:56:19.778Z,101072.96
2019-01-05T02:59:13.902Z,101079.44
2019-01-05T03:02:23.122Z,101072.95
2019-01-05T03:05:10.632Z,101063.89
2019-01-05T03:08:09.705Z,101060.83
2019-01-05T03:10:59.600Z,101048.30
2019-01-05T03:14:17.832Z,101042.29
2019-01-05T03:17:26.782Z,101037.09
2019-01-05T03:20:19.642Z,101039.69
2019-01-05T03:23:19.865Z,101025.86
2019-01-05T03:26:23.088Z,101022.41
2019-01-05T03:29:16.012Z,101023.72
2019-01-05T03:32:25.036Z,101026.30
2019-01-05T03:35:10.013Z,101019.81
2019-01-05T03:38:02.432Z,101005.56
2019-01-05T03:40:56.751Z,101001.23
2019-01-05T03:43:47.601Z,101006.41
2019-01-05T03:46:41.369Z,101002.13
2019-01-05T03:49:26.412Z,101004.70
2019-01-05T03:52:27.141Z,101002.97
2019-01-05T03:55:36.431Z,101004.27
2019-01-05T03:58:30.649Z,100987.88
2019-01-05T04:01:51.190Z,100985.71
2019-01-05T04:04:57.783Z,100984.44
2019-01-05T04:07:52.009Z,100972.75
2019-01-05T04:10:47.236Z,100962.41
2019-01-05T04:13:36.962Z,100968.87
2019-01-05T04:16:16.220Z,100959.40
2019-01-05T04:19:01.025Z,100951.63
2019-01-05T04:22:07.413Z,100946.00
2019-01-05T04:25:02.930Z,100952.91
2019-01-05T04:28:11.641Z,100949.45
2019-01-05T04:30:56.400Z,100950.75
2019-01-05T04:33:41.172Z,100961.52
2019-01-05T04:36:52.176Z,100945.56
2019-01-05T04:40:00.234Z,100956.35
2019-01-05T04:43:03.574Z,100942.52
2019-01-05T04:46:10.981Z,100936.92
2019-01-05T04:49:20.578Z,100932.17
2019-01-05T04:52:25.468Z,100938.63
2019-01-05T04:55:14.685Z,100934.73
2019-01-05T04:58:20.674Z,100931.25
2019-01-05T05:01:24.504Z,100926.52
2019-01-05T05:04:33.727Z,100924.77
2019-01-05T05:07:27.645Z,100931.69
2019-01-05T05:10:33.609Z,100917.41
2019-01-05T05:13:35.125Z,100913.95
2019-01-05T05:16:33.856Z,100909.61
2019-01-05T05:19:35.083Z,100911.32
2019-01-05T05:22:37.940Z,100904.42
2019-01-05T05:25:48.409Z,100903.94
2019-01-05T05:28:30.446Z,100897.92
2019-01-05T05:31:34.034Z,100903.09
2019-01-05T05:34:38.960Z,100907.83
2019-01-05T05:37:50.766Z,100907.83
2019-01-05T05:40:41.643Z,100901.35
2019-01-05T05:43:43.466Z,100894.03
2019-01-05T05:46:42.195Z,100894.02
2019-01-05T05:49:46.942Z,100891.89
2019-01-05T05:52:37.947Z,100878.92
2019-01-05T05:55:39.853Z,100873.36
2019-01-05T05:58:27.456Z,100880.23
2019-01-05T06:01:28.863Z,100887.16
2019-01-05T06:04:21.480Z,100897.06
2019-01-05T06:07:30.778Z,100900.08
2019-01-05T06:10:41.752Z,100897.95
2019-01-05T06:13:39.736Z,100885.89
2019-01-05T06:16:35.614Z,100895.38
2019-01-05T06:19:36.054Z,100891.93
2019-01-05T06:22:33.528Z,100894.91
2019-01-05T06:25:39.338Z,100899.67
2019-01-05T06:28:55.224Z,100900.58
2019-01-05T06:32:19.645Z,100899.28
2019-01-05T06:35:04.711Z,100907.90
2019-01-05T06:37:49.591Z,100909.19
2019-01-05T06:40:28.356Z,100912.20
2019-01-05T06:43:46.953Z,100920.86
2019-01-05T06:46:34.358Z,100909.64
2019-01-05T06:49:39.355Z,100910.49
2019-01-05T06:52:44.023Z,100905.80
2019-01-05T06:55:37.579Z,100883.34
2019-01-05T06:58:31.194Z,100876.02
2019-01-05T07:01:35.558Z,100879.48
2019-01-05T07:04:34.367Z,100869.12
2019-01-05T07:10:23.667Z,100878.63
2019-01-05T07:13:22.028Z,100878.19
2019-01-05T07:16:22.954Z,100871.73
2019-01-05T07:19:38.195Z,100864.83
2019-01-05T07:22:20.038Z,100873.91
2019-01-05T07:25:19.058Z,100872.17
2019-01-05T07:28:27.866Z,100868.30
2019-01-05T07:31:29.470Z,100868.30
2019-01-05T07:37:37.751Z,100866.16
2019-01-05T07:40:42.519Z,100857.09
2019-01-05T07:43:57.696Z,100859.28
2019-01-05T07:47:10.513Z,100851.92
2019-01-05T07:50:09.440Z,100843.75
2019-01-05T07:53:26.087Z,100843.31
2019-01-05T07:56:43.082Z,100850.64
2019-01-05T07:59:47.427Z,100852.35
2019-01-05T08:02:41.682Z,100835.53
2019-01-05T08:05:53.420Z,100826.92
2019-01-05T08:08:49.070Z,100823.91
2019-01-05T08:11:31.195Z,100826.91
2019-01-05T08:14:19.382Z,100824.33
2019-01-05T08:17:18.240Z,100835.09
2019-01-05T08:20:24.890Z,100820.86
2019-01-05T08:23:27.088Z,100818.27
2019-01-05T08:26:18.206Z,100825.19
2019-01-05T08:29:16.961Z,100822.60
2019-01-05T08:32:23.438Z,100824.30
2019-01-05T08:35:04.968Z,100826.05
2019-01-05T08:38:22.493Z,100820.42
2019-01-05T08:41:28.906Z,100823.45
2019-01-05T08:44:25.426Z,100832.08
2019-01-05T08:50:46.091Z,100834.23
2019-01-05T08:53:56.045Z,100839.84
2019-01-05T08:56:57.370Z,100844.14
2019-01-05T08:59:50.145Z,100840.70
2019-01-05T09:02:52.150Z,100835.94
2019-01-05T09:06:09.242Z,100835.94
2019-01-05T09:09:15.321Z,100835.49
2019-01-05T09:12:10.983Z,100834.20
2019-01-05T09:15:02.202Z,100834.20
2019-01-05T09:17:47.056Z,100836.78
2019-01-05T09:20:57.798Z,100830.17
2019-01-05T09:23:46.103Z,100839.70
2019-01-05T09:27:00.173Z,100829.70
2019-01-05T09:29:55.812Z,100838.42
2019-01-05T09:32:40.996Z,100835.88
2019-01-05T09:35:26.495Z,100829.80
2019-01-05T09:38:23.722Z,100837.58
2019-01-05T09:41:09.217Z,100824.22
2019-01-05T09:44:21.824Z,100825.91
2019-01-05T09:47:13.258Z,100820.33
2019-01-05T09:50:28.729Z,100822.88
2019-01-05T09:53:36.388Z,100824.59
2019-01-05T09:56:21.310Z,100820.27
2019-01-05T09:59:37.994Z,100821.55
2019-01-05T10:02:39.539Z,100828.02
2019-01-05T10:05:19.097Z,100814.60
2019-01-05T10:08:12.041Z,100816.73
2019-01-05T10:11:00.524Z,100815.42
2019-01-05T10:14:14.506Z,100814.05
2019-01-05T10:17:11.327Z,100811.00
2019-01-05T10:20:01.328Z,100805.79
2019-01-05T10:23:16.731Z,100807.91
2019-01-05T10:26:24.391Z,100800.52
2019-01-05T10:29:22.596Z,100796.63
2019-01-05T10:32:12.988Z,100799.22
2019-01-05T10:35:35.763Z,100800.02
2019-01-05T10:38:31.599Z,100796.55
2019-01-05T10:41:34.992Z,100806.46
2019-01-05T10:44:27.397Z,100793.34
2019-01-05T10:47:21.695Z,100800.33
2019-01-05T10:50:03.727Z,100797.25
2019-01-05T10:53:21.871Z,100790.78
2019-01-05T10:56:28.359Z,100795.10
2019-01-05T10:59:37.499Z,100792.86
2019-01-05T11:02:34.565Z,100791.53
2019-01-05T11:05:49.572Z,100788.03
2019-01-05T11:08:37.305Z,100787.54
2019-01-05T11:11:42.063Z,100781.05
2019-01-05T11:14:51.417Z,100777.56
2019-01-05T11:17:55.027Z,100772.30
2019-01-05T11:20:53.590Z,100777.83
2019-01-05T11:23:58.524Z,100779.45
2019-01-05T11:27:05.381Z,100778.02
2019-01-05T11:29:58.520Z,100775.34
2019-01-05T11:33:15.978Z,100772.21
2019-01-05T11:36:07.077Z,100765.65
2019-01-05T11:39:09.289Z,100763.41
2019-01-05T11:42:11.367Z,100760.70
2019-01-05T11:45:06.378Z,100759.61
2019-01-05T11:47:54.436Z,100748.63
2019-01-05T11:50:52.804Z,100758.61
2019-01-05T11:53:49.364Z,100749.84
2019-01-05T11:57:04.448Z,100757.38
2019-01-05T11:59:55.382Z,100750.00
2019-01-05T12:02:46.577Z,100743.38
2019-01-05T12:06:02.202Z,100738.05
2019-01-05T12:09:07.897Z,100737.69
2019-01-05T12:11:47.160Z,100747.59
2019-01-05T12:14:25.932Z,100756.24
2019-01-05T12:17:34.104Z,100760.19
2019-01-05T12:20:58.432Z,100758.00
2019-01-05T12:24:04.280Z,100759.32
2019-01-05T12:27:18.059Z,100750.14
2019-01-05T12:30:22.616Z,100754.45
2019-01-05T12:33:17.143Z,100757.79
2019-01-05T12:36:01.955Z,100756.48
2019-01-05T12:39:14.444Z,100758.31
2019-01-05T12:42:20.223Z,100758.58
2019-01-05T12:45:17.206Z,100758.86
2019-01-05T12:48:12.587Z,100757.96
2019-01-05T12:51:00.766Z,100754.09
2019-01-05T12:54:07.449Z,100747.81
2019-01-05T12:57:06.452Z,100745.74
2019-01-05T13:00:09.787Z,100758.94
2019-01-05T13:03:22.395Z,100752.66
2019-01-05T13:06:31.535Z,100750.50
2019-01-05T13:09:36.684Z,100754.45
2019-01-05T13:12:38.438Z,100757.48
2019-01-05T13:15:32.463Z,100754.13
2019-01-05T13:18:20.294Z,100755.17
2019-01-05T13:21:29.695Z,100749.61
2019-01-05T13:24:31.652Z,100751.33
2019-01-05T13:27:22.851Z,100759.98
2019-01-05T13:30:13.103Z,100755.33
2019-01-05T13:33:16.525Z,100756.55
2019-01-05T13:36:08.898Z,100759.98
2019-01-05T13:39:21.018Z,100760.38
2019-01-05T13:42:21.093Z,100766.34
2019-01-05T13:45:40.745Z,100767.98
2019-01-05T13:48:22.480Z,100771.82
2019-01-05T13:51:30.338Z,100770.60
2019-01-05T13:54:17.033Z,100778.76
2019-01-05T13:56:59.020Z,100773.20
2019-01-05T13:59:34.744Z,100779.67
2019-01-05T14:02:21.248Z,100779.11
2019-01-05T14:04:53.716Z,100780.39
2019-01-05T14:07:23.798Z,100785.55
2019-01-05T14:10:10.128Z,100791.63
2019-01-05T14:12:51.845Z,100790.80
2019-01-05T14:15:24.735Z,100802.93
2019-01-05T14:17:57.609Z,100806.34
2019-01-05T14:20:27.874Z,100802.41
2019-01-05T14:23:00.621Z,100805.39
2019-01-05T14:25:31.130Z,100807.13
2019-01-05T14:28:16.301Z,100809.69
2019-01-05T14:31:01.429Z,100809.69
2019-01-05T14:33:48.956Z,100709.48
2019-01-05T14:36:25.053Z,100803.28
2019-01-05T14:38:57.717Z,100804.56
2019-01-05T14:41:27.790Z,100811.12
2019-01-05T14:43:57.938Z,100809.77
2019-01-05T14:46:37.154Z,100809.42
2019-01-05T14:49:23.397Z,100808.52
2019-01-05T14:52:00.129Z,100807.64
2019-01-05T14:54:34.041Z,100815.00
2019-01-05T14:57:06.551Z,100814.58
2019-01-05T14:59:45.531Z,100822.38
2019-01-05T15:02:18.040Z,100824.12
2019-01-05T15:04:48.165Z,100824.14
2019-01-05T15:07:18.190Z,100821.52
2019-01-05T15:09:54.592Z,100819.78
2019-01-05T15:12:40.344Z,100823.20
2019-01-05T15:15:14.027Z,100821.04
2019-01-05T15:17:44.688Z,100826.27
2019-01-05T15:20:31.682Z,100825.75
2019-01-05T15:23:07.909Z,100827.19
2019-01-05T15:25:47.090Z,100828.02
2019-01-05T15:28:17.100Z,100826.29
2019-01-05T15:30:50.094Z,100831.97
2019-01-05T15:33:36.339Z,100831.08
2019-01-05T15:36:12.294Z,100831.47
2019-01-05T15:38:48.111Z,100828.95
2019-01-05T15:41:27.140Z,100813.74
2019-01-05T15:44:00.052Z,100815.97
2019-01-05T15:46:33.186Z,100819.02
2019-01-05T15:49:21.203Z,100827.25
2019-01-05T15:51:56.883Z,100819.02
2019-01-05T15:54:30.011Z,100827.70
2019-01-05T15:57:16.208Z,100835.06
2019-01-05T15:59:51.950Z,100840.29
2019-01-05T16:02:33.819Z,100837.70
2019-01-05T16:05:03.846Z,100835.06
2019-01-05T16:07:34.070Z,100846.78
2019-01-05T16:10:10.291Z,100847.67
2019-01-05T16:12:55.008Z,100845.97
2019-01-05T16:15:30.593Z,100844.67
2019-01-05T16:18:16.826Z,100843.86
2019-01-05T16:21:05.510Z,100846.82
2019-01-05T16:23:44.503Z,100850.25
2019-01-05T16:26:14.545Z,100845.97
2019-01-05T16:28:46.995Z,100838.65
2019-01-05T16:31:33.000Z,100843.89
2019-01-05T16:34:20.806Z,100843.97
2019-01-05T16:37:07.285Z,100844.41
2019-01-05T16:39:42.775Z,100849.63
2019-01-05T16:42:21.376Z,100841.05
2019-01-05T16:44:54.422Z,100842.73
2019-01-05T16:47:39.499Z,100851.42
2019-01-05T16:50:25.762Z,100851.00
2019-01-05T16:53:11.225Z,100858.28
2019-01-05T16:55:59.321Z,100853.14
2019-01-05T16:58:43.537Z,100853.59
2019-01-05T17:01:30.158Z,100850.12
2019-01-05T17:04:16.882Z,100857.91
2019-01-05T17:06:47.178Z,100849.22
2019-01-05T17:09:33.370Z,100850.50
2019-01-05T17:12:10.229Z,100851.84
2019-01-05T17:14:43.725Z,100857.49
2019-01-05T17:17:14.223Z,100860.56
2019-01-05T17:19:54.416Z,100862.70
2019-01-05T17:22:33.985Z,100857.53
2019-01-05T17:25:16.055Z,100860.64
2019-01-05T17:27:49.104Z,100863.66
2019-01-05T17:30:35.749Z,100861.03
2019-01-05T17:33:22.463Z,100861.05
2019-01-05T17:36:08.667Z,100862.77
2019-01-05T17:38:53.741Z,100861.48
2019-01-05T17:41:26.542Z,100858.03
2019-01-05T17:44:08.657Z,100857.20
2019-01-05T17:46:38.660Z,100843.39
2019-01-05T17:49:08.704Z,100847.63
2019-01-05T17:51:47.273Z,100855.09
2019-01-05T17:54:31.771Z,100852.08
2019-01-05T17:57:17.119Z,100841.66
2019-01-05T17:59:47.209Z,100845.62
2019-01-05T18:02:17.382Z,100847.81
2019-01-05T18:04:55.999Z,100847.91
2019-01-05T18:07:31.656Z,100853.91
2019-01-05T18:10:16.827Z,100851.35
2019-01-05T18:13:00.212Z,100847.53
2019-01-05T18:15:33.410Z,100841.59
2019-01-05T18:18:06.724Z,100853.16
2019-01-05T18:20:40.438Z,100864.47
2019-01-05T18:23:10.772Z,100860.97
2019-01-05T18:26:01.819Z,100861.88
2019-01-05T18:28:38.359Z,100851.05
2019-01-05T18:31:25.751Z,100863.54
2019-01-05T18:34:01.741Z,100864.50
2019-01-05T18:36:49.950Z,100857.22
2019-01-05T18:39:30.170Z,100858.17
2019-01-05T18:42:16.739Z,100863.77
2019-01-05T18:45:03.363Z,100859.05
2019-01-05T18:47:43.923Z,100862.07
2019-01-05T18:50:23.557Z,100855.48
2019-01-05T18:53:10.127Z,100860.27
2019-01-05T18:55:48.896Z,100865.91
2019-01-05T18:58:27.073Z,100860.71
2019-01-05T19:01:15.090Z,100867.29
2019-01-05T19:03:45.339Z,100860.83
2019-01-05T19:06:15.581Z,100857.75
2019-01-05T19:08:45.779Z,100855.62
2019-01-05T19:11:28.022Z,100857.78
2019-01-05T19:14:13.247Z,100855.62
2019-01-05T19:16:49.436Z,100860.37
2019-01-05T19:19:35.651Z,100852.92
2019-01-05T19:22:20.182Z,100857.32
2019-01-05T19:25:09.765Z,100859.47
2019-01-05T19:27:57.428Z,100855.52
2019-01-05T19:30:46.279Z,100859.88
2019-01-05T19:33:32.688Z,100856.47
2019-01-05T19:36:20.202Z,100860.06
2019-01-05T19:38:56.731Z,100868.67
2019-01-05T19:41:43.110Z,100853.59
2019-01-05T19:44:19.287Z,100844.50
2019-01-05T19:47:04.721Z,100850.63
2019-01-05T19:49:51.487Z,100849.44
2019-01-05T19:52:30.912Z,100839.98
2019-01-05T19:55:07.411Z,100840.38
2019-01-05T19:57:54.173Z,100840.33
2019-01-05T20:00:40.919Z,100839.94
2019-01-05T20:03:13.921Z,100844.72
2019-01-05T20:05:43.952Z,100845.97
2019-01-05T20:08:17.080Z,100848.10
2019-01-05T20:11:04.893Z,100849.38
2019-01-05T20:13:53.061Z,100853.77
2019-01-05T20:16:39.924Z,100860.36
2019-01-05T20:19:21.758Z,100850.83
2019-01-05T20:21:53.333Z,100858.17
2019-01-05T20:24:41.664Z,100852.50
2019-01-05T20:27:14.682Z,100854.32
2019-01-05T20:29:55.123Z,100858.25
2019-01-05T20:32:33.973Z,100852.52
2019-01-05T20:35:21.946Z,100851.65
2019-01-05T20:38:10.333Z,100854.16
2019-01-05T20:40:49.295Z,100852.85
2019-01-05T20:43:19.338Z,100853.71
2019-01-05T20:46:08.014Z,100851.11
2019-01-05T20:48:44.134Z,100860.61
2019-01-05T20:51:28.978Z,100856.60
2019-01-05T20:54:14.891Z,100861.45
2019-01-05T20:56:51.010Z,100860.91
2019-01-05T20:59:32.826Z,100864.80
2019-01-05T21:02:11.753Z,100863.92
2019-01-05T21:04:54.284Z,100860.41
2019-01-05T21:07:40.507Z,100862.64
2019-01-05T21:10:16.737Z,100868.67
2019-01-05T21:13:05.307Z,100865.13
2019-01-05T21:15:51.757Z,100866.41
2019-01-05T21:18:38.134Z,100872.14
2019-01-05T21:21:08.137Z,100864.31
2019-01-05T21:23:46.729Z,100868.67
2019-01-05T21:26:24.516Z,100864.34
2019-01-05T21:29:02.861Z,100867.86
2019-01-05T21:31:32.852Z,100870.44
2019-01-05T21:34:18.220Z,100866.95
2019-01-05T21:36:48.223Z,100875.61
2019-01-05T21:39:19.168Z,100867.81
2019-01-05T21:41:55.298Z,100865.25
2019-01-05T21:44:25.914Z,100874.83
2019-01-05T21:47:13.679Z,100887.83
2019-01-05T21:49:52.391Z,100881.75
2019-01-05T21:52:25.382Z,100880.38
2019-01-05T21:54:58.167Z,100879.11
2019-01-05T21:57:33.922Z,100879.12
2019-01-05T22:00:10.163Z,100876.54
2019-01-05T22:02:40.174Z,100870.10
2019-01-05T22:05:12.944Z,100883.02
2019-01-05T22:07:42.947Z,100875.64
2019-01-05T22:10:13.513Z,100865.73
2019-01-05T22:12:58.828Z,100865.28
2019-01-05T22:15:45.228Z,100862.66
2019-01-05T22:18:18.774Z,100858.31
2019-01-05T22:20:56.840Z,100867.87
2019-01-05T22:23:26.984Z,100863.05
2019-01-05T22:26:13.576Z,100856.96
2019-01-05T22:28:46.714Z,100852.21
2019-01-05T22:31:35.059Z,100842.70
2019-01-05T22:34:11.457Z,100844.84
2019-01-05T22:36:50.716Z,100849.20
2019-01-05T22:39:36.335Z,100847.56
2019-01-05T22:42:09.507Z,100848.80
2019-01-05T22:44:42.645Z,100855.33
2019-01-05T22:47:13.415Z,100858.36
2019-01-05T22:49:49.961Z,100860.95
2019-01-05T22:52:20.061Z,100870.52
2019-01-05T22:55:08.611Z,100871.78
2019-01-05T22:57:55.283Z,100873.91
2019-01-05T23:00:34.263Z,100873.94
2019-01-05T23:03:07.636Z,100868.75
2019-01-05T23:05:41.041Z,100871.80
2019-01-05T23:08:14.406Z,100867.02
2019-01-05T23:10:56.927Z,100862.73
2019-01-05T23:13:43.265Z,100862.33
2019-01-05T23:16:13.477Z,100866.26
2019-01-05T23:18:49.334Z,100865.88
2019-01-05T23:21:19.614Z,100871.03
2019-01-05T23:24:05.727Z,100867.95
2019-01-05T23:26:38.061Z,100866.20
2019-01-05T23:29:18.007Z,100872.70
2019-01-05T23:31:55.128Z,100867.56
2019-01-05T23:34:32.486Z,100868.81
2019-01-05T23:37:11.500Z,100864.48
2019-01-05T23:39:49.483Z,100870.05
2019-01-05T23:42:19.863Z,100868.30
2019-01-05T23:45:02.398Z,100865.32
2019-01-05T23:47:38.097Z,100852.74
2019-01-05T23:50:08.965Z,100845.81
2019-01-05T23:52:55.431Z,100856.20
2019-01-05T23:55:41.848Z,100862.69
2019-01-05T23:58:39.669Z,100852.78
